Itanhandu, Brazil
Current Conditions -  °F | °C
As of 3:00 PM on Friday 31 Oct 2014 (Local Time) from SBGW Reporting Station
Thunderstorm Thunderstorm  
Wind Chill: 86°   Ceiling: 3000
Heat Index: 87°   Visibility: 6mi
Dew Point: 63°   Wind: 12mph
Humidity: 45%   Direction: 320°NW
Pressure: 29.91"   Gusts: NA
Location:  22.3°S, 44.93°W
Report Text: SBGW 311700Z 32010KT 9000 -TSRA BKN030 FEW035CB 30/17 Q1013
Loading
Personal Weather Stations






























Interactive Weather Map
Tropical Storm Tracking
New forecast layout! Learn more

10-Day Weather Forecast

Advertisements
Track Severe Weather on mobile